Time;durP1;ratioP1;P1;durP2;ratioP2;P2;SDS_P1;SDS_P2;PMS_P1;PMS_P2;Temp;Humidity;BMP_temperature;BMP_pressure;BME280_temperature;BME280_humidity;BME280_pressure;Samples;Min_cycle;Max_cycle;Signal;HPM_P1;HPM_P2
2023/06/22 00:00:53;;;;;;;19.95;16.42;;;16.80;99.90;;;;;;5011720;28;20050;-73
2023/06/22 00:03:19;;;;;;;22.83;18.50;;;16.70;99.90;;;;;;5011832;28;20449;-73
2023/06/22 00:05:46;;;;;;;23.90;19.30;;;16.70;99.90;;;;;;5010699;28;20046;-74
2023/06/22 00:08:12;;;;;;;22.77;18.42;;;16.70;99.90;;;;;;5011305;28;20116;-73
2023/06/22 00:10:38;;;;;;;23.77;17.30;;;16.70;99.90;;;;;;5012733;28;20050;-74
2023/06/22 00:13:05;;;;;;;21.20;17.33;;;16.60;99.90;;;;;;5011490;28;20050;-73
2023/06/22 00:15:35;;;;;;;20.98;16.65;;;16.50;99.90;;;;;;5011887;28;20046;-73
2023/06/22 00:18:02;;;;;;;21.10;17.45;;;16.50;99.90;;;;;;5012101;28;20049;-74
2023/06/22 00:20:28;;;;;;;25.80;18.55;;;16.40;99.90;;;;;;5011164;28;20124;-73
2023/06/22 00:22:55;;;;;;;22.33;17.77;;;16.40;99.90;;;;;;5010898;28;20085;-74
2023/06/22 00:25:23;;;;;;;24.23;19.10;;;16.40;99.90;;;;;;5011590;28;20045;-73
2023/06/22 00:27:49;;;;;;;24.00;19.35;;;16.40;99.90;;;;;;5010464;28;20057;-73
2023/06/22 00:30:19;;;;;;;23.55;18.70;;;16.30;99.90;;;;;;5011504;28;20048;-74
2023/06/22 00:32:45;;;;;;;27.88;19.50;;;16.40;99.90;;;;;;5010707;28;20061;-73
2023/06/22 00:35:14;;;;;;;39.22;19.85;;;16.40;99.90;;;;;;5013338;28;20393;-74
2023/06/22 00:37:42;;;;;;;36.25;19.73;;;16.40;99.90;;;;;;5012760;28;20041;-73
2023/06/22 00:40:11;;;;;;;28.60;19.73;;;16.40;99.90;;;;;;5012030;28;20042;-73
2023/06/22 00:42:43;;;;;;;25.55;18.95;;;16.30;99.90;;;;;;5011453;28;20092;-73
2023/06/22 00:45:09;;;;;;;29.33;18.92;;;16.30;99.90;;;;;;5013002;28;20096;-73
2023/06/22 00:47:37;;;;;;;21.48;16.85;;;16.30;99.90;;;;;;5011329;28;20041;-74
2023/06/22 00:50:06;;;;;;;27.45;18.35;;;16.30;99.90;;;;;;5011560;28;20053;-73
2023/06/22 00:52:34;;;;;;;19.67;16.92;;;16.30;99.90;;;;;;5011611;28;20096;-73
2023/06/22 00:55:02;;;;;;;20.25;17.05;;;16.20;99.90;;;;;;5012099;28;20130;-74
2023/06/22 00:57:28;;;;;;;19.95;16.83;;;16.30;99.90;;;;;;5012407;28;20069;-73
2023/06/22 00:59:55;;;;;;;20.67;16.75;;;16.20;99.90;;;;;;5015970;28;20046;-74
2023/06/22 01:02:20;;;;;;;20.33;16.85;;;16.20;99.90;;;;;;5015989;28;20088;-74
2023/06/22 01:04:46;;;;;;;20.70;16.88;;;16.20;99.90;;;;;;5016611;28;20042;-74
2023/06/22 01:07:39;;;;;;;20.80;16.48;;;16.20;99.90;;;;;;5016318;28;20088;-74
2023/06/22 01:10:36;;;;;;;21.50;16.10;;;16.20;99.90;;;;;;5014856;28;20061;-74
2023/06/22 01:13:06;;;;;;;27.38;16.67;;;16.20;99.90;;;;;;5015951;28;20486;-74
2023/06/22 01:15:41;;;;;;;25.13;16.60;;;16.20;99.90;;;;;;5013925;28;20124;-73
2023/06/22 01:18:09;;;;;;;27.00;17.13;;;16.20;99.90;;;;;;5015135;28;20521;-73
2023/06/22 01:20:36;;;;;;;26.08;17.50;;;16.10;99.90;;;;;;5014364;28;20129;-73
2023/06/22 01:23:19;;;;;;;34.47;18.27;;;16.20;99.90;;;;;;5014941;28;20053;-74
2023/06/22 01:25:56;;;;;;;29.42;18.13;;;16.20;99.90;;;;;;5013876;28;20053;-74
2023/06/22 01:28:48;;;;;;;29.52;17.63;;;16.20;99.90;;;;;;5015804;28;20060;-74
2023/06/22 01:31:20;;;;;;;21.90;18.05;;;16.20;99.90;;;;;;5014396;28;20058;-73
2023/06/22 01:33:51;;;;;;;23.48;18.05;;;16.20;99.90;;;;;;5013892;28;20049;-74
2023/06/22 01:36:17;;;;;;;26.65;18.58;;;16.30;99.90;;;;;;5013016;28;20044;-74
2023/06/22 01:38:44;;;;;;;27.95;19.10;;;16.30;99.90;;;;;;5015006;28;20136;-73
2023/06/22 01:41:11;;;;;;;38.78;19.23;;;16.40;99.90;;;;;;5014325;28;20104;-74
2023/06/22 01:43:37;;;;;;;23.63;19.95;;;16.40;99.90;;;;;;5012287;28;20085;-74
2023/06/22 01:46:03;;;;;;;28.70;19.45;;;16.40;99.90;;;;;;5014268;28;20074;-74
2023/06/22 01:48:30;;;;;;;34.53;19.05;;;16.40;99.90;;;;;;5013932;28;20050;-74
2023/06/22 01:50:55;;;;;;;39.83;19.58;;;16.40;99.90;;;;;;5012700;28;20077;-73
2023/06/22 01:53:25;;;;;;;32.08;19.95;;;16.40;99.90;;;;;;5013657;28;20433;-74
2023/06/22 01:55:51;;;;;;;33.30;19.63;;;16.50;99.90;;;;;;5014951;28;20037;-74
2023/06/22 01:58:20;;;;;;;29.77;19.70;;;16.50;99.90;;;;;;5012809;28;20421;-74
2023/06/22 02:01:04;;;;;;;31.85;19.08;;;16.50;99.90;;;;;;5014630;28;20397;-74
2023/06/22 02:03:46;;;;;;;30.20;18.75;;;16.60;99.90;;;;;;5027292;28;20062;-74
2023/06/22 02:06:34;;;;;;;44.30;18.95;;;16.60;99.90;;;;;;4993333;28;20043;-73
2023/06/22 02:09:05;;;;;;;49.35;19.50;;;16.60;99.90;;;;;;4994020;28;20054;-74
2023/06/22 02:11:33;;;;;;;32.55;18.92;;;16.60;99.90;;;;;;5011812;28;20100;-74
2023/06/22 02:13:59;;;;;;;47.60;20.13;;;16.60;99.90;;;;;;5013234;28;20493;-74
2023/06/22 02:16:30;;;;;;;31.52;19.77;;;16.70;99.90;;;;;;5013383;28;20037;-74
2023/06/22 02:19:03;;;;;;;47.95;19.58;;;16.70;99.90;;;;;;5012684;28;20509;-74
2023/06/22 02:21:29;;;;;;;27.23;19.80;;;16.70;99.90;;;;;;5014638;28;20071;-74
2023/06/22 02:23:55;;;;;;;79.00;18.48;;;16.70;99.90;;;;;;5013012;28;20505;-74
2023/06/22 02:26:21;;;;;;;72.00;17.95;;;16.70;99.90;;;;;;5011781;28;20072;-74
2023/06/22 02:28:49;;;;;;;38.20;18.50;;;16.60;99.90;;;;;;5012446;28;20501;-74
2023/06/22 02:31:15;;;;;;;28.80;19.35;;;16.70;99.90;;;;;;5013188;28;20133;-74
2023/06/22 02:33:41;;;;;;;58.95;20.17;;;16.70;99.90;;;;;;5012403;28;20053;-74
2023/06/22 02:36:08;;;;;;;31.75;20.98;;;16.70;99.90;;;;;;5014320;28;20042;-74
2023/06/22 02:38:36;;;;;;;27.30;20.52;;;16.70;99.90;;;;;;5013944;28;20050;-74
2023/06/22 02:41:02;;;;;;;37.20;22.30;;;16.70;99.90;;;;;;5012353;28;20046;-74
2023/06/22 02:43:28;;;;;;;30.77;21.75;;;16.60;99.90;;;;;;5014504;28;20046;-73
2023/06/22 02:45:55;;;;;;;28.17;21.50;;;16.70;99.90;;;;;;5012624;28;20588;-74
2023/06/22 02:48:21;;;;;;;40.42;21.38;;;16.60;99.90;;;;;;5013341;28;20037;-74
2023/06/22 02:50:46;;;;;;;28.02;19.40;;;16.70;99.90;;;;;;5012729;28;20413;-74
2023/06/22 02:53:12;;;;;;;26.55;19.08;;;16.60;99.90;;;;;;5012064;28;20042;-74
2023/06/22 02:55:39;;;;;;;30.50;20.15;;;16.70;99.90;;;;;;5013343;28;20042;-74
2023/06/22 02:58:08;;;;;;;35.38;19.88;;;16.70;99.90;;;;;;5012480;28;20081;-74
2023/06/22 03:00:39;;;;;;;26.92;20.05;;;16.70;99.90;;;;;;5010807;28;20490;-74
2023/06/22 03:03:04;;;;;;;23.13;19.20;;;16.70;99.90;;;;;;5012822;28;20089;-74
2023/06/22 03:05:32;;;;;;;25.83;19.75;;;16.70;99.90;;;;;;5012373;28;20466;-74
2023/06/22 03:07:58;;;;;;;25.55;19.42;;;16.60;99.90;;;;;;5012500;28;20045;-74
2023/06/22 03:10:26;;;;;;;27.15;20.10;;;16.70;99.90;;;;;;5012184;28;20045;-73
2023/06/22 03:12:52;;;;;;;27.40;20.00;;;16.70;99.90;;;;;;5012125;28;20130;-74
2023/06/22 03:15:17;;;;;;;23.63;19.30;;;16.70;99.90;;;;;;5011400;28;20046;-74
2023/06/22 03:17:43;;;;;;;26.52;20.75;;;16.70;99.90;;;;;;5012165;28;20042;-74
2023/06/22 03:20:12;;;;;;;24.90;19.38;;;16.60;99.90;;;;;;5013620;28;20034;-74
2023/06/22 03:22:42;;;;;;;29.42;20.15;;;16.60;99.90;;;;;;5011670;28;20054;-74
2023/06/22 03:25:13;;;;;;;28.05;20.95;;;16.60;99.90;;;;;;5012264;28;20053;-74
2023/06/22 03:27:39;;;;;;;30.55;20.30;;;16.60;99.90;;;;;;5013102;28;20056;-74
2023/06/22 03:30:08;;;;;;;29.80;21.25;;;16.60;99.90;;;;;;5011543;28;20042;-74
2023/06/22 03:32:34;;;;;;;35.70;21.45;;;16.70;99.90;;;;;;5012073;28;20057;-74
2023/06/22 03:35:00;;;;;;;43.35;20.30;;;16.70;99.90;;;;;;5011762;28;20050;-74
2023/06/22 03:37:26;;;;;;;41.45;21.25;;;16.60;99.90;;;;;;5012364;28;20096;-74
2023/06/22 03:39:53;;;;;;;35.17;21.75;;;16.60;99.90;;;;;;5011598;28;20093;-74
2023/06/22 03:42:19;;;;;;;29.13;19.52;;;16.60;99.90;;;;;;5011833;28;20050;-74
2023/06/22 03:44:45;;;;;;;22.40;18.52;;;16.50;99.90;;;;;;5011895;28;20049;-74
2023/06/22 03:47:11;;;;;;;38.28;18.33;;;16.40;99.90;;;;;;5011511;28;20077;-74
2023/06/22 03:49:37;;;;;;;40.53;18.15;;;16.40;99.90;;;;;;5010886;28;20402;-74
2023/06/22 03:52:06;;;;;;;49.75;18.42;;;16.40;99.90;;;;;;5012608;28;20050;-74
2023/06/22 03:54:32;;;;;;;19.77;17.33;;;16.40;99.90;;;;;;5011319;28;20112;-74
2023/06/22 03:56:58;;;;;;;40.10;17.45;;;16.40;99.90;;;;;;5010983;28;20124;-73
2023/06/22 03:59:25;;;;;;;40.58;17.85;;;16.40;99.90;;;;;;5012653;28;20110;-74
2023/06/22 04:01:50;;;;;;;41.60;16.95;;;16.40;99.90;;;;;;5012684;28;20045;-73
2023/06/22 04:04:17;;;;;;;59.13;17.30;;;16.30;99.90;;;;;;5012222;28;20485;-74
2023/06/22 04:06:43;;;;;;;29.13;16.60;;;16.30;99.90;;;;;;5010495;28;20041;-74
2023/06/22 04:09:09;;;;;;;65.97;18.20;;;16.30;99.90;;;;;;5012965;28;20397;-73
2023/06/22 04:11:35;;;;;;;27.55;16.85;;;16.20;99.90;;;;;;5011783;28;20069;-74
2023/06/22 04:14:01;;;;;;;26.75;18.38;;;16.20;99.90;;;;;;5011312;28;20037;-74
2023/06/22 04:16:27;;;;;;;24.67;17.38;;;16.20;99.90;;;;;;5010634;28;20069;-74
2023/06/22 04:18:52;;;;;;;32.28;16.83;;;16.20;99.90;;;;;;5011591;28;20437;-74
2023/06/22 04:21:19;;;;;;;25.23;17.33;;;16.20;99.90;;;;;;5012433;28;20068;-73
2023/06/22 04:23:46;;;;;;;26.17;18.00;;;16.20;99.90;;;;;;5011549;28;20050;-74
2023/06/22 04:26:12;;;;;;;43.45;17.33;;;16.20;99.90;;;;;;5010591;28;20498;-74
2023/06/22 04:28:41;;;;;;;53.40;17.92;;;16.20;99.90;;;;;;5012735;28;20042;-74
2023/06/22 04:31:07;;;;;;;32.05;18.50;;;16.20;99.90;;;;;;4991732;28;20038;-74
2023/06/22 04:33:33;;;;;;;45.83;18.73;;;16.30;99.90;;;;;;4993589;28;20045;-74
2023/06/22 04:36:01;;;;;;;60.65;20.23;;;16.30;99.90;;;;;;4995386;28;20094;-74
2023/06/22 04:38:26;;;;;;;76.05;21.17;;;16.30;99.90;;;;;;5008768;28;20045;-74
2023/06/22 04:40:53;;;;;;;61.75;21.13;;;16.40;99.90;;;;;;5015417;28;20041;-74
2023/06/22 04:43:19;;;;;;;28.77;20.10;;;16.50;99.90;;;;;;5015159;28;20041;-74
2023/06/22 04:45:45;;;;;;;36.08;19.10;;;16.50;99.90;;;;;;5014056;28;20099;-74
2023/06/22 04:48:15;;;;;;;35.92;18.55;;;16.50;99.90;;;;;;5014412;28;20060;-73
2023/06/22 04:50:42;;;;;;;20.27;17.42;;;16.50;99.90;;;;;;5015129;28;20471;-74
2023/06/22 04:53:12;;;;;;;26.23;17.13;;;16.50;99.90;;;;;;5015420;28;20125;-71
2023/06/22 04:55:41;;;;;;;18.77;16.88;;;16.60;99.90;;;;;;5014660;28;20108;-74
2023/06/22 04:58:07;;;;;;;32.72;16.90;;;16.60;99.90;;;;;;5013629;28;20053;-72
2023/06/22 05:00:36;;;;;;;20.83;17.27;;;16.60;99.90;;;;;;5013607;28;20041;-72
2023/06/22 05:03:03;;;;;;;24.70;17.20;;;16.60;99.90;;;;;;5015286;28;20046;-71
2023/06/22 05:05:31;;;;;;;22.13;18.33;;;16.60;99.90;;;;;;5013741;28;20050;-70
2023/06/22 05:08:00;;;;;;;24.40;19.92;;;16.70;99.90;;;;;;5014519;28;20129;-72
2023/06/22 05:10:26;;;;;;;23.38;20.05;;;16.70;99.90;;;;;;5014528;28;20052;-74
2023/06/22 05:12:52;;;;;;;23.80;20.38;;;16.70;99.90;;;;;;5014147;28;20059;-77
2023/06/22 05:15:19;;;;;;;22.83;20.15;;;16.80;99.90;;;;;;5013234;28;20041;-75
2023/06/22 05:17:45;;;;;;;28.25;22.10;;;16.90;99.90;;;;;;5013756;28;20386;-73
2023/06/22 05:20:12;;;;;;;27.45;23.50;;;17.00;99.90;;;;;;5014660;28;20056;-78
2023/06/22 05:22:39;;;;;;;26.30;22.45;;;17.10;99.90;;;;;;5013247;28;20073;-73
2023/06/22 05:25:08;;;;;;;30.38;23.33;;;17.10;99.90;;;;;;5014318;28;20494;-75
2023/06/22 05:27:39;;;;;;;29.65;23.73;;;17.20;99.90;;;;;;5013770;28;20064;-76
2023/06/22 05:30:08;;;;;;;30.30;24.38;;;17.30;99.90;;;;;;5014621;28;20065;-73
2023/06/22 05:32:35;;;;;;;33.60;25.88;;;17.40;99.90;;;;;;5014018;28;20180;-74
2023/06/22 05:35:06;;;;;;;33.42;25.45;;;17.50;99.90;;;;;;5014601;28;20053;-75
2023/06/22 05:37:32;;;;;;;35.30;25.33;;;17.60;99.90;;;;;;5012827;28;20170;-73
2023/06/22 05:39:58;;;;;;;34.28;26.40;;;17.70;99.90;;;;;;5046773;28;20283;-74
2023/06/22 05:42:25;;;;;;;36.65;25.88;;;17.90;99.90;;;;;;5012282;28;20042;-75
2023/06/22 05:44:53;;;;;;;32.80;23.52;;;18.00;99.90;;;;;;5012747;28;20054;-75
2023/06/22 05:47:19;;;;;;;32.40;23.83;;;18.00;99.90;;;;;;5014198;28;20053;-73
2023/06/22 05:49:45;;;;;;;35.92;25.15;;;18.10;99.90;;;;;;5013202;28;20042;-73
2023/06/22 05:52:11;;;;;;;36.00;23.35;;;18.10;99.90;;;;;;5012700;28;20054;-81
2023/06/22 05:54:38;;;;;;;31.63;22.02;;;18.10;99.90;;;;;;5011386;28;20042;-75
2023/06/22 05:57:04;;;;;;;29.05;21.77;;;18.20;99.90;;;;;;5010817;28;20069;-76
2023/06/22 05:59:30;;;;;;;26.08;21.30;;;18.20;99.90;;;;;;5010244;28;20085;-77
2023/06/22 06:01:56;;;;;;;26.85;20.67;;;18.30;99.90;;;;;;5009633;28;20041;-77
2023/06/22 06:04:21;;;;;;;23.77;18.75;;;18.30;99.90;;;;;;5009496;28;20682;-75
2023/06/22 06:06:47;;;;;;;24.88;18.77;;;18.40;99.90;;;;;;5012245;28;20081;-75
2023/06/22 06:09:16;;;;;;;25.25;19.48;;;18.50;99.90;;;;;;5012927;28;20153;-75
2023/06/22 06:11:42;;;;;;;23.98;19.33;;;18.60;99.90;;;;;;5010964;28;20345;-75
2023/06/22 06:14:08;;;;;;;24.25;19.27;;;18.60;99.90;;;;;;5011279;28;20116;-75
2023/06/22 06:16:34;;;;;;;25.80;20.25;;;18.70;99.90;;;;;;5011099;28;20081;-75
2023/06/22 06:18:59;;;;;;;25.55;19.15;;;18.80;99.90;;;;;;5010405;28;20132;-75
2023/06/22 06:21:25;;;;;;;23.55;19.35;;;18.90;99.90;;;;;;5012358;28;20066;-73
2023/06/22 06:23:51;;;;;;;25.02;19.98;;;19.00;99.90;;;;;;5010358;28;20058;-75
2023/06/22 06:26:16;;;;;;;25.27;19.50;;;19.20;99.90;;;;;;5011426;28;20129;-75
2023/06/22 06:28:46;;;;;;;24.48;17.98;;;19.30;99.90;;;;;;5012562;28;20046;-73
2023/06/22 06:31:11;;;;;;;24.90;18.23;;;19.40;99.90;;;;;;5012506;28;20052;-73
2023/06/22 06:33:37;;;;;;;20.92;17.77;;;19.50;99.90;;;;;;5013559;28;20041;-72
2023/06/22 06:36:08;;;;;;;22.35;17.92;;;19.60;99.90;;;;;;5013028;28;20132;-72
2023/06/22 06:38:33;;;;;;;22.95;17.98;;;19.70;99.90;;;;;;5012097;28;20959;-71
2023/06/22 06:40:59;;;;;;;21.08;17.17;;;19.80;99.90;;;;;;5013052;28;20124;-71
2023/06/22 06:43:28;;;;;;;23.10;17.67;;;19.90;99.90;;;;;;5012780;28;20394;-71
2023/06/22 06:45:54;;;;;;;20.98;16.67;;;20.00;99.90;;;;;;5012382;28;20034;-73
2023/06/22 06:48:20;;;;;;;19.27;16.13;;;20.00;99.90;;;;;;5013728;28;20406;-71
2023/06/22 06:50:45;;;;;;;18.92;15.75;;;20.10;99.90;;;;;;5011202;28;20042;-72
2023/06/22 06:53:11;;;;;;;19.02;15.93;;;20.20;99.90;;;;;;5012699;28;20042;-71
2023/06/22 06:55:37;;;;;;;21.17;15.73;;;20.30;99.90;;;;;;5012819;28;20042;-71
2023/06/22 06:58:07;;;;;;;18.80;15.35;;;20.50;99.90;;;;;;5012574;28;20409;-73
2023/06/22 07:00:33;;;;;;;19.70;14.70;;;20.60;99.90;;;;;;5012571;28;20485;-72
2023/06/22 07:02:58;;;;;;;17.02;13.45;;;20.70;99.90;;;;;;5013101;28;20056;-71
2023/06/22 07:05:24;;;;;;;14.98;12.50;;;20.80;99.90;;;;;;5013570;28;20034;-71
2023/06/22 07:07:50;;;;;;;16.48;13.40;;;20.90;99.90;;;;;;5010886;28;20038;-72
2023/06/22 07:10:16;;;;;;;17.45;13.75;;;21.00;99.90;;;;;;5013909;28;20046;-71
2023/06/22 07:12:42;;;;;;;17.40;13.40;;;21.10;99.90;;;;;;5012077;28;20112;-71
2023/06/22 07:15:09;;;;;;;16.90;14.27;;;21.20;99.90;;;;;;5013068;28;20042;-72
2023/06/22 07:17:40;;;;;;;17.00;13.43;;;21.30;99.90;;;;;;5013570;28;20412;-72
2023/06/22 07:20:11;;;;;;;15.73;12.90;;;21.50;99.90;;;;;;5013561;28;20064;-71
2023/06/22 07:22:38;;;;;;;15.88;12.45;;;22.00;99.90;;;;;;5011040;28;20450;-71
2023/06/22 07:25:09;;;;;;;18.02;13.15;;;22.70;99.90;;;;;;5013653;28;20057;-72
2023/06/22 07:27:58;;;;;;;14.98;12.85;;;23.50;99.90;;;;;;5011086;28;20038;-72
2023/06/22 07:30:24;;;;;;;13.73;11.52;;;24.30;99.90;;;;;;5011227;28;20050;-72
2023/06/22 07:32:50;;;;;;;14.70;11.77;;;25.00;99.90;;;;;;4992314;28;20075;-73
2023/06/22 07:35:16;;;;;;;18.60;12.18;;;25.60;99.90;;;;;;5008466;28;20080;-72
2023/06/22 07:37:42;;;;;;;15.52;12.23;;;26.00;99.90;;;;;;5012864;28;20038;-72
2023/06/22 07:40:09;;;;;;;13.45;11.32;;;26.30;99.90;;;;;;5013454;28;20046;-72
2023/06/22 07:42:35;;;;;;;14.23;11.30;;;26.70;99.90;;;;;;5012420;28;20089;-72
2023/06/22 07:45:03;;;;;;;15.27;12.40;;;27.10;99.90;;;;;;5011939;28;20104;-72
2023/06/22 07:47:29;;;;;;;14.40;11.27;;;27.50;99.90;;;;;;5012934;28;20060;-72
2023/06/22 07:49:58;;;;;;;14.90;10.82;;;27.60;99.90;;;;;;5010621;28;20042;-72
2023/06/22 07:52:25;;;;;;;12.88;10.43;;;28.10;99.90;;;;;;5011956;28;20053;-73
2023/06/22 07:54:51;;;;;;;15.23;10.77;;;28.40;99.90;;;;;;5012280;28;20506;-72
2023/06/22 07:57:16;;;;;;;13.38;10.77;;;28.60;99.90;;;;;;5010893;28;20050;-73
2023/06/22 07:59:42;;;;;;;13.82;10.52;;;28.70;99.30;;;;;;5011529;28;20137;-73
2023/06/22 08:02:09;;;;;;;13.60;10.38;;;28.50;99.30;;;;;;5012249;28;20046;-73
2023/06/22 08:04:35;;;;;;;12.73;10.95;;;28.60;99.60;;;;;;5010595;28;20077;-73
2023/06/22 08:07:02;;;;;;;13.00;10.45;;;28.60;97.50;;;;;;5011170;28;20136;-74
2023/06/22 08:09:32;;;;;;;13.40;10.60;;;28.50;98.50;;;;;;5013187;28;20046;-73
2023/06/22 08:11:58;;;;;;;10.95;9.40;;;28.60;98.00;;;;;;5010533;28;20042;-73
2023/06/22 08:14:26;;;;;;;11.45;9.80;;;28.90;98.30;;;;;;5011148;28;20084;-73
2023/06/22 08:16:51;;;;;;;12.93;9.48;;;29.20;97.90;;;;;;5011944;28;20951;-72
2023/06/22 08:19:17;;;;;;;10.18;8.52;;;29.40;98.00;;;;;;5011457;28;20502;-71
2023/06/22 08:21:43;;;;;;;12.27;10.25;;;29.30;96.50;;;;;;5010502;28;20053;-72
2023/06/22 08:24:09;;;;;;;10.45;8.90;;;29.60;96.60;;;;;;5011597;28;20506;-72
2023/06/22 08:26:36;;;;;;;13.73;9.40;;;29.70;95.80;;;;;;5011936;28;20057;-73
2023/06/22 08:29:05;;;;;;;10.82;9.13;;;29.70;95.10;;;;;;5012399;28;20391;-72
2023/06/22 08:31:34;;;;;;;12.52;10.63;;;29.60;95.80;;;;;;5010505;28;20046;-73
2023/06/22 08:34:00;;;;;;;9.68;8.55;;;29.40;96.60;;;;;;5012418;28;20038;-73
2023/06/22 08:36:41;;;;;;;9.73;8.70;;;29.50;96.50;;;;;;5011135;28;20065;-73
2023/06/22 08:39:08;;;;;;;9.05;7.30;;;29.60;94.80;;;;;;5012145;28;20089;-73
2023/06/22 08:41:33;;;;;;;11.32;8.48;;;29.80;95.50;;;;;;5010688;28;20104;-73
2023/06/22 08:43:59;;;;;;;10.75;7.97;;;29.80;95.40;;;;;;5010815;28;20046;-72
2023/06/22 08:46:31;;;;;;;9.93;7.57;;;29.60;95.20;;;;;;5009814;28;20061;-72
2023/06/22 08:48:57;;;;;;;12.70;8.10;;;29.80;95.60;;;;;;5011136;28;20054;-73
2023/06/22 08:51:24;;;;;;;10.20;8.60;;;29.80;95.80;;;;;;5011780;28;20033;-73
2023/06/22 08:53:49;;;;;;;10.68;9.40;;;30.00;95.00;;;;;;5010404;28;20096;-73
2023/06/22 08:56:24;;;;;;;10.15;7.93;;;30.10;93.90;;;;;;5010068;28;20447;-74
2023/06/22 08:58:53;;;;;;;9.20;7.30;;;30.00;94.20;;;;;;5043210;28;20038;-74
2023/06/22 09:01:21;;;;;;;10.13;8.48;;;30.20;94.70;;;;;;5011738;28;20285;-74
2023/06/22 09:03:55;;;;;;;9.63;7.03;;;30.30;93.90;;;;;;5012150;28;20042;-74
2023/06/22 09:06:21;;;;;;;8.52;5.78;;;30.70;93.20;;;;;;5011579;28;20104;-73
2023/06/22 09:08:47;;;;;;;8.80;7.38;;;30.70;92.40;;;;;;5010665;28;20054;-74
2023/06/22 09:11:13;;;;;;;9.38;7.15;;;31.10;93.00;;;;;;5010826;28;20085;-74
2023/06/22 09:13:39;;;;;;;8.90;7.63;;;31.30;93.20;;;;;;5010133;28;20060;-73
2023/06/22 09:16:07;;;;;;;11.35;6.47;;;31.30;91.70;;;;;;5011971;28;20046;-73
2023/06/22 09:18:34;;;;;;;9.93;7.63;;;31.20;92.60;;;;;;5012063;28;20038;-74
2023/06/22 09:20:59;;;;;;;8.82;6.35;;;31.10;91.80;;;;;;5013673;28;20476;-78
2023/06/22 09:23:25;;;;;;;7.88;6.10;;;31.60;92.10;;;;;;5014296;28;20081;-68
2023/06/22 09:25:51;;;;;;;7.90;5.85;;;31.80;90.80;;;;;;5015208;28;20910;-70
2023/06/22 09:28:16;;;;;;;8.18;5.95;;;31.70;91.10;;;;;;5013225;28;20052;-73
2023/06/22 09:30:45;;;;;;;7.55;5.18;;;31.70;91.60;;;;;;5014172;28;20045;-72
2023/06/22 09:33:11;;;;;;;7.00;5.00;;;31.70;90.80;;;;;;5015751;28;20394;-72
2023/06/22 09:35:39;;;;;;;7.13;5.05;;;31.80;91.00;;;;;;5012543;28;20046;-73
2023/06/22 09:38:04;;;;;;;6.68;5.20;;;31.70;90.10;;;;;;5014053;28;20429;-72
2023/06/22 09:40:32;;;;;;;6.18;4.85;;;31.70;90.30;;;;;;5015633;28;20038;-71
2023/06/22 09:42:58;;;;;;;7.72;4.80;;;31.80;91.20;;;;;;5013324;28;20045;-72
2023/06/22 09:45:24;;;;;;;6.97;4.97;;;31.90;90.00;;;;;;5015497;28;20382;-72
2023/06/22 09:47:50;;;;;;;7.22;5.45;;;32.10;90.80;;;;;;5014998;28;20077;-74
2023/06/22 09:50:15;;;;;;;7.82;5.55;;;32.00;90.00;;;;;;5014033;28;20151;-74
2023/06/22 09:52:44;;;;;;;6.70;4.50;;;32.00;90.60;;;;;;5014588;28;20053;-73
2023/06/22 09:55:10;;;;;;;6.30;4.63;;;32.00;90.20;;;;;;5013692;28;20041;-74
2023/06/22 09:57:35;;;;;;;5.90;4.75;;;32.10;90.20;;;;;;5014513;28;20046;-73
2023/06/22 10:00:01;;;;;;;8.95;5.65;;;32.00;90.50;;;;;;5015254;28;20482;-74
2023/06/22 10:02:27;;;;;;;7.20;5.25;;;31.60;89.20;;;;;;5012979;28;20049;-74
2023/06/22 10:04:56;;;;;;;10.38;5.38;;;31.70;90.10;;;;;;5013941;28;20121;-72
2023/06/22 10:07:21;;;;;;;6.95;5.20;;;31.90;90.00;;;;;;5014648;28;20048;-73
2023/06/22 10:09:47;;;;;;;7.10;5.35;;;31.80;90.50;;;;;;5013874;28;20120;-72
2023/06/22 10:12:13;;;;;;;7.65;4.47;;;31.90;90.10;;;;;;5015155;28;20124;-71
2023/06/22 10:14:41;;;;;;;6.03;4.60;;;32.00;90.20;;;;;;5012952;28;20034;-73
2023/06/22 10:17:07;;;;;;;8.80;5.22;;;32.00;90.40;;;;;;5012351;28;20481;-71
2023/06/22 10:19:33;;;;;;;7.07;5.15;;;32.00;90.00;;;;;;5014539;28;20038;-72
2023/06/22 10:21:58;;;;;;;7.10;4.63;;;31.80;90.30;;;;;;5013120;28;20105;-72
2023/06/22 10:24:24;;;;;;;6.22;4.82;;;31.50;90.30;;;;;;5013432;28;20069;-72
2023/06/22 10:26:50;;;;;;;9.00;5.53;;;31.70;90.20;;;;;;5013117;28;20124;-71
2023/06/22 10:29:18;;;;;;;7.68;5.13;;;31.70;89.80;;;;;;5013445;28;20478;-74
2023/06/22 10:31:44;;;;;;;6.38;4.80;;;31.90;89.70;;;;;;5012131;28;20056;-73
2023/06/22 10:34:13;;;;;;;5.68;4.22;;;31.70;88.70;;;;;;5013268;28;20086;-74
2023/06/22 10:36:39;;;;;;;6.13;4.60;;;31.70;89.50;;;;;;5014260;28;20398;-74
2023/06/22 10:39:05;;;;;;;5.03;4.00;;;31.70;89.10;;;;;;5013822;28;20049;-71
2023/06/22 10:41:31;;;;;;;7.80;4.20;;;32.00;90.30;;;;;;5014309;28;20386;-72
2023/06/22 10:43:57;;;;;;;6.18;3.80;;;32.10;90.00;;;;;;5015766;28;20478;-72
2023/06/22 10:46:25;;;;;;;5.25;3.70;;;31.80;89.30;;;;;;5012471;28;20050;-72
2023/06/22 10:48:56;;;;;;;4.68;3.50;;;31.70;89.20;;;;;;5010849;28;20497;-71
2023/06/22 10:51:22;;;;;;;7.13;3.65;;;31.70;89.30;;;;;;5013299;28;20417;-72
2023/06/22 10:53:48;;;;;;;5.38;3.47;;;31.90;90.00;;;;;;5011615;28;20553;-72
2023/06/22 10:56:14;;;;;;;5.07;3.88;;;32.00;89.90;;;;;;5013329;28;20561;-73
2023/06/22 10:58:44;;;;;;;6.78;3.70;;;32.20;89.30;;;;;;5011066;28;20056;-73
2023/06/22 11:01:10;;;;;;;4.72;3.50;;;32.30;90.10;;;;;;5013746;28;20098;-72
2023/06/22 11:03:35;;;;;;;6.47;4.50;;;32.20;88.30;;;;;;5012248;28;20125;-72
2023/06/22 11:06:01;;;;;;;5.07;3.88;;;32.20;88.90;;;;;;5012624;28;20038;-72
2023/06/22 11:08:27;;;;;;;6.72;5.00;;;32.20;90.00;;;;;;5013661;28;20411;-72
2023/06/22 11:10:53;;;;;;;5.82;4.80;;;32.10;88.80;;;;;;5015887;28;20128;-72
2023/06/22 11:13:18;;;;;;;6.97;3.72;;;31.90;89.40;;;;;;5013034;28;20065;-75
2023/06/22 11:15:47;;;;;;;5.32;4.22;;;32.20;90.00;;;;;;5017590;28;20125;-75
2023/06/22 11:18:15;;;;;;;5.75;3.80;;;32.00;88.60;;;;;;5013172;28;20133;-74
2023/06/22 11:20:41;;;;;;;6.30;4.43;;;32.20;89.40;;;;;;5011996;28;20092;-72
2023/06/22 11:23:07;;;;;;;6.22;4.63;;;32.00;88.30;;;;;;5013014;28;20054;-72
2023/06/22 11:25:39;;;;;;;5.65;4.15;;;32.00;87.50;;;;;;5011646;28;20559;-72
2023/06/22 11:28:05;;;;;;;6.60;4.43;;;31.70;88.90;;;;;;5010511;28;20510;-71
2023/06/22 11:30:31;;;;;;;5.68;4.53;;;31.60;88.40;;;;;;5013470;28;20121;-70
2023/06/22 11:32:58;;;;;;;6.18;4.25;;;31.40;87.70;;;;;;5011963;28;20505;-70
2023/06/22 11:35:24;;;;;;;5.30;4.40;;;31.10;88.70;;;;;;5012681;28;20042;-70
2023/06/22 11:37:50;;;;;;;5.90;3.92;;;31.10;88.80;;;;;;5011825;28;20046;-70
2023/06/22 11:40:17;;;;;;;6.00;4.47;;;31.00;89.60;;;;;;5011742;28;20046;-70
2023/06/22 11:42:43;;;;;;;7.32;5.15;;;31.10;90.10;;;;;;5010349;28;20076;-70
2023/06/22 11:45:09;;;;;;;6.10;4.30;;;31.10;88.20;;;;;;5012111;28;20037;-72
2023/06/22 11:47:36;;;;;;;6.60;4.20;;;31.10;89.80;;;;;;5012409;28;20037;-70
2023/06/22 11:50:03;;;;;;;7.22;4.50;;;31.20;88.80;;;;;;5012182;28;20052;-70
2023/06/22 11:52:28;;;;;;;6.18;4.30;;;31.20;90.00;;;;;;5011965;28;20100;-71
2023/06/22 11:54:54;;;;;;;5.07;3.80;;;31.30;89.80;;;;;;5011929;28;20042;-71
2023/06/22 11:57:20;;;;;;;4.82;3.78;;;31.40;88.40;;;;;;5012547;28;20038;-70
2023/06/22 11:59:45;;;;;;;4.82;3.58;;;31.40;87.90;;;;;;5010660;28;20049;-71
2023/06/22 12:02:11;;;;;;;5.00;3.35;;;31.50;87.80;;;;;;5002527;28;20046;-70
2023/06/22 12:04:42;;;;;;;5.95;4.10;;;31.40;88.70;;;;;;5001411;28;20038;-72
2023/06/22 12:07:08;;;;;;;6.03;4.07;;;31.30;86.80;;;;;;5001987;28;20394;-74
2023/06/22 12:09:34;;;;;;;4.95;3.72;;;31.40;86.10;;;;;;5008798;28;20038;-73
2023/06/22 12:11:59;;;;;;;4.82;3.40;;;31.40;87.30;;;;;;5012304;28;20064;-73
2023/06/22 12:14:25;;;;;;;5.13;3.75;;;31.60;86.80;;;;;;5011910;28;20037;-74
2023/06/22 12:16:51;;;;;;;5.78;3.35;;;31.70;87.30;;;;;;5011634;28;20042;-73
2023/06/22 12:19:17;;;;;;;5.15;3.10;;;31.50;85.90;;;;;;5011811;28;20045;-74
2023/06/22 12:21:45;;;;;;;6.00;3.08;;;31.50;86.30;;;;;;5011723;28;20085;-73
2023/06/22 12:24:11;;;;;;;4.80;3.50;;;31.60;87.70;;;;;;5010088;28;20046;-73
2023/06/22 12:26:36;;;;;;;4.82;2.90;;;31.10;85.90;;;;;;5011945;28;20048;-74
2023/06/22 12:29:02;;;;;;;6.85;3.28;;;31.20;86.60;;;;;;5010636;28;20474;-74
2023/06/22 12:31:28;;;;;;;3.70;2.45;;;31.10;86.80;;;;;;5010385;28;20065;-74
2023/06/22 12:33:57;;;;;;;4.22;2.50;;;31.10;86.10;;;;;;5008938;28;20137;-73